createdAt,value
2023-05-21T00:00:10.886Z,77.65
2023-05-21T00:02:43.071Z,77.69
2023-05-21T00:05:14.747Z,77.70
2023-05-21T00:07:43.611Z,77.70
2023-05-21T00:10:13.922Z,77.48
2023-05-21T00:12:42.915Z,77.64
2023-05-21T00:15:11.963Z,77.63
2023-05-21T00:17:40.582Z,77.69
2023-05-21T00:20:10.162Z,77.64
2023-05-21T00:22:38.621Z,77.61
2023-05-21T00:25:07.829Z,77.38
2023-05-21T00:27:37.740Z,77.34
2023-05-21T00:30:07.307Z,77.50
2023-05-21T00:32:35.705Z,77.61
2023-05-21T00:35:04.208Z,77.70
2023-05-21T00:37:34.431Z,77.43
2023-05-21T00:40:04.865Z,77.63
2023-05-21T00:42:33.849Z,77.58
2023-05-21T00:45:04.372Z,77.53
2023-05-21T00:47:33.334Z,77.53
2023-05-21T00:50:03.720Z,77.71
2023-05-21T00:52:32.770Z,77.46
2023-05-21T00:55:01.492Z,77.58
2023-05-21T00:57:30.135Z,77.69
2023-05-21T00:59:58.603Z,77.84
2023-05-21T01:02:28.677Z,78.05
2023-05-21T01:04:57.216Z,77.95
2023-05-21T01:07:25.699Z,77.63
2023-05-21T01:09:55.143Z,77.79
2023-05-21T01:12:25.139Z,77.74
2023-05-21T01:14:54.524Z,78.13
2023-05-21T01:17:24.582Z,78.22
2023-05-21T01:19:54.926Z,78.08
2023-05-21T01:22:25.214Z,78.18
2023-05-21T01:24:55.827Z,78.19
2023-05-21T01:27:24.411Z,78.10
2023-05-21T01:29:52.985Z,78.09
2023-05-21T01:32:32.374Z,77.73
2023-05-21T01:35:05.755Z,77.93
2023-05-21T01:37:38.949Z,77.79
2023-05-21T01:40:14.473Z,77.81
2023-05-21T01:42:45.775Z,78.10
2023-05-21T01:45:17.128Z,78.30
2023-05-21T01:47:49.132Z,78.59
2023-05-21T01:50:19.941Z,78.78
2023-05-21T01:52:52.794Z,78.95
2023-05-21T01:55:33.158Z,79.17
2023-05-21T01:58:02.652Z,79.32
2023-05-21T02:00:32.768Z,79.46
2023-05-21T02:03:01.500Z,79.61
2023-05-21T02:05:30.678Z,79.49
2023-05-21T02:08:00.220Z,80.03
2023-05-21T02:10:30.137Z,80.08
2023-05-21T02:12:59.397Z,79.86
2023-05-21T02:15:27.961Z,79.88
2023-05-21T02:17:56.439Z,79.88
2023-05-21T02:20:24.932Z,79.74
2023-05-21T02:22:53.458Z,79.97
2023-05-21T02:25:22.108Z,79.79
2023-05-21T02:27:54.215Z,79.78
2023-05-21T02:30:22.793Z,80.12
2023-05-21T02:32:51.222Z,79.77
2023-05-21T02:35:19.712Z,79.86
2023-05-21T02:37:49.111Z,80.15
2023-05-21T02:40:17.689Z,79.87
2023-05-21T02:42:46.216Z,79.85
2023-05-21T02:45:20.722Z,79.97
2023-05-21T02:47:49.361Z,80.07
2023-05-21T02:50:22.502Z,80.26
2023-05-21T02:53:00.565Z,80.24
2023-05-21T02:55:30.024Z,80.63
2023-05-21T02:57:58.516Z,80.45
2023-05-21T03:00:28.449Z,80.31
2023-05-21T03:02:56.985Z,80.06
2023-05-21T03:05:26.490Z,80.04
2023-05-21T03:07:54.888Z,79.94
2023-05-21T03:10:23.320Z,79.91
2023-05-21T03:12:53.645Z,79.93
2023-05-21T03:15:24.362Z,79.75
2023-05-21T03:17:55.775Z,79.68
2023-05-21T03:20:24.945Z,79.44
2023-05-21T03:22:54.962Z,79.69
2023-05-21T03:25:25.378Z,79.39
2023-05-21T03:27:55.753Z,79.20
2023-05-21T03:30:46.954Z,79.37
2023-05-21T03:33:34.979Z,79.32
2023-05-21T03:36:12.810Z,79.41
2023-05-21T03:38:41.363Z,79.82
2023-05-21T03:41:12.507Z,79.65
2023-05-21T03:43:43.314Z,79.52
2023-05-21T03:46:11.990Z,79.15
2023-05-21T03:49:05.458Z,79.28
2023-05-21T03:51:36.160Z,79.35
2023-05-21T03:54:04.661Z,79.43
2023-05-21T03:56:33.570Z,79.53
2023-05-21T03:59:02.405Z,79.29
2023-05-21T04:01:34.216Z,79.41
2023-05-21T04:04:05.607Z,79.53
2023-05-21T04:06:34.551Z,79.62
2023-05-21T04:09:02.996Z,79.57
2023-05-21T04:11:31.502Z,79.26
2023-05-21T04:13:59.875Z,79.26
2023-05-21T04:16:28.402Z,79.28
2023-05-21T04:18:56.953Z,79.29
2023-05-21T04:21:29.470Z,79.36
2023-05-21T04:23:58.593Z,78.99
2023-05-21T04:26:44.721Z,79.23
2023-05-21T04:29:13.376Z,79.32
2023-05-21T04:31:42.068Z,79.22
2023-05-21T04:34:11.139Z,79.74
2023-05-21T04:36:41.955Z,79.53
2023-05-21T04:39:10.618Z,79.35
2023-05-21T04:41:40.150Z,79.47
2023-05-21T04:44:09.202Z,79.20
2023-05-21T04:46:41.585Z,79.35
2023-05-21T04:49:11.741Z,79.50
2023-05-21T04:51:41.974Z,79.58
2023-05-21T04:54:10.609Z,79.54
2023-05-21T04:56:39.245Z,79.74
2023-05-21T04:59:07.766Z,79.54
2023-05-21T05:01:38.683Z,79.43
2023-05-21T05:04:07.522Z,79.32
2023-05-21T05:06:36.237Z,79.32
2023-05-21T05:09:06.068Z,79.65
2023-05-21T05:11:34.534Z,79.63
2023-05-21T05:14:03.009Z,79.80
2023-05-21T05:16:31.860Z,79.84
2023-05-21T05:19:01.158Z,79.76
2023-05-21T05:21:29.578Z,79.85
2023-05-21T05:23:58.040Z,79.84
2023-05-21T05:26:31.011Z,80.35
2023-05-21T05:28:59.495Z,80.55
2023-05-21T05:31:27.972Z,80.33
2023-05-21T05:33:56.750Z,80.28
2023-05-21T05:36:26.252Z,80.14
2023-05-21T05:38:54.776Z,80.31
2023-05-21T05:41:24.889Z,80.16
2023-05-21T05:43:55.241Z,80.11
2023-05-21T05:46:26.970Z,80.16
2023-05-21T05:48:55.516Z,80.10
2023-05-21T05:51:23.883Z,79.95
2023-05-21T05:53:52.699Z,79.94
2023-05-21T05:56:22.538Z,79.83
2023-05-21T05:58:51.033Z,79.90
2023-05-21T06:01:24.905Z,79.88
2023-05-21T06:03:53.873Z,79.80
2023-05-21T06:06:22.386Z,80.05
2023-05-21T06:08:51.040Z,80.01
2023-05-21T06:11:21.756Z,79.75
2023-05-21T06:13:50.255Z,80.02
2023-05-21T06:16:19.702Z,80.19
2023-05-21T06:18:49.961Z,80.22
2023-05-21T06:21:18.491Z,80.49
2023-05-21T06:23:47.115Z,80.58
2023-05-21T06:26:15.550Z,80.46
2023-05-21T06:28:43.963Z,80.42
2023-05-21T06:31:13.802Z,80.56
2023-05-21T06:33:44.173Z,80.63
2023-05-21T06:36:14.128Z,80.42
2023-05-21T06:38:42.848Z,80.35
2023-05-21T06:41:11.347Z,80.45
2023-05-21T06:44:00.156Z,80.61
2023-05-21T06:46:47.336Z,80.69
2023-05-21T06:49:16.681Z,80.37
2023-05-21T06:51:46.803Z,80.06
2023-05-21T06:54:16.582Z,80.24
2023-05-21T06:56:45.251Z,80.31
2023-05-21T06:59:16.045Z,80.37
2023-05-21T07:01:45.050Z,80.62
2023-05-21T07:04:15.064Z,80.47
2023-05-21T07:06:47.059Z,80.56
2023-05-21T07:09:15.805Z,80.41
2023-05-21T07:11:44.511Z,80.55
2023-05-21T07:14:15.756Z,80.65
2023-05-21T07:16:44.289Z,80.67
2023-05-21T07:19:12.895Z,80.93
2023-05-21T07:21:41.782Z,80.93
2023-05-21T07:24:11.545Z,81.08
2023-05-21T07:26:41.820Z,80.97
2023-05-21T07:29:11.656Z,80.95
2023-05-21T07:31:40.230Z,80.85
2023-05-21T07:34:09.169Z,80.67
2023-05-21T07:36:38.632Z,80.45
2023-05-21T07:39:07.834Z,80.66
2023-05-21T07:41:37.793Z,80.74
2023-05-21T07:44:09.443Z,80.89
2023-05-21T07:46:41.867Z,80.86
2023-05-21T07:49:17.055Z,80.81
2023-05-21T07:51:47.619Z,81.05
2023-05-21T07:54:17.239Z,80.88
2023-05-21T07:56:48.016Z,81.05
2023-05-21T07:59:30.473Z,81.25
2023-05-21T08:01:59.204Z,81.21
2023-05-21T08:04:27.772Z,81.02
2023-05-21T08:06:56.648Z,81.08
2023-05-21T08:09:26.255Z,80.91
2023-05-21T08:11:56.224Z,81.02
2023-05-21T08:14:25.656Z,81.14
2023-05-21T08:16:54.659Z,81.18
2023-05-21T08:19:23.497Z,81.45
2023-05-21T08:21:53.070Z,81.54
2023-05-21T08:24:23.519Z,81.29
2023-05-21T08:26:53.190Z,81.28
2023-05-21T08:29:23.065Z,81.16
2023-05-21T08:31:51.689Z,81.22
2023-05-21T08:34:20.178Z,81.15
2023-05-21T08:36:58.315Z,81.20
2023-05-21T08:39:53.041Z,81.14
2023-05-21T08:42:37.405Z,80.14
2023-05-21T08:45:12.534Z,80.19
2023-05-21T08:47:43.730Z,80.05
2023-05-21T08:50:18.453Z,80.34
2023-05-21T08:52:48.216Z,80.80
2023-05-21T08:55:17.864Z,81.09
2023-05-21T08:57:46.356Z,81.38
2023-05-21T09:00:20.927Z,81.23
2023-05-21T09:02:49.564Z,80.93
2023-05-21T09:05:20.621Z,80.58
2023-05-21T09:07:57.081Z,79.81
2023-05-21T09:10:50.740Z,80.03
2023-05-21T09:13:21.355Z,79.71
2023-05-21T09:15:52.982Z,78.97
2023-05-21T09:18:23.216Z,79.08
2023-05-21T09:21:28.149Z,78.78
2023-05-21T09:24:01.843Z,78.53
2023-05-21T09:26:31.278Z,78.04
2023-05-21T09:29:03.976Z,77.37
2023-05-21T09:31:34.008Z,77.03
2023-05-21T09:34:03.064Z,76.84
2023-05-21T09:36:34.840Z,76.32
2023-05-21T09:39:03.533Z,76.22
2023-05-21T09:41:36.241Z,74.95
2023-05-21T09:44:06.328Z,73.99
2023-05-21T09:46:42.096Z,74.28
2023-05-21T09:49:26.491Z,74.11
2023-05-21T09:51:59.149Z,73.74
2023-05-21T09:54:33.600Z,72.99
2023-05-21T09:57:02.793Z,73.74
2023-05-21T09:59:38.059Z,72.53
2023-05-21T10:02:20.955Z,71.98
2023-05-21T10:04:53.003Z,71.59
2023-05-21T10:07:26.439Z,71.83
2023-05-21T10:09:57.338Z,71.56
2023-05-21T10:12:26.394Z,71.23
2023-05-21T10:15:01.400Z,71.36
2023-05-21T10:17:31.868Z,70.83
2023-05-21T10:20:01.823Z,71.77
2023-05-21T10:22:30.820Z,69.72
2023-05-21T10:25:00.244Z,69.73
2023-05-21T10:27:32.254Z,68.86
2023-05-21T10:30:01.759Z,68.95
2023-05-21T10:32:31.970Z,68.04
2023-05-21T10:35:03.095Z,66.96
2023-05-21T10:37:31.819Z,68.04
2023-05-21T10:40:00.166Z,66.88
2023-05-21T10:42:52.264Z,66.09
2023-05-21T10:45:28.315Z,65.65
2023-05-21T10:48:24.995Z,66.15
2023-05-21T10:51:16.950Z,65.03
2023-05-21T10:54:03.810Z,65.10
2023-05-21T10:56:39.435Z,67.09
2023-05-21T10:59:22.532Z,64.86
2023-05-21T11:01:53.275Z,64.46
2023-05-21T11:04:31.069Z,64.37
2023-05-21T11:07:00.554Z,64.70
2023-05-21T11:09:29.030Z,63.88
2023-05-21T11:11:59.138Z,65.17
2023-05-21T11:14:31.787Z,64.70
2023-05-21T11:17:00.955Z,65.18
2023-05-21T11:19:41.567Z,66.17
2023-05-21T11:22:11.651Z,66.27
2023-05-21T11:24:42.089Z,66.13
2023-05-21T11:27:10.763Z,66.64
2023-05-21T11:29:41.923Z,66.41
2023-05-21T11:32:11.443Z,65.91
2023-05-21T11:34:46.027Z,64.64
2023-05-21T11:37:34.990Z,63.70
2023-05-21T11:40:19.161Z,63.52
2023-05-21T11:42:52.234Z,64.41
2023-05-21T11:45:21.670Z,65.04
2023-05-21T11:47:51.610Z,64.53
2023-05-21T11:50:21.868Z,63.87
2023-05-21T11:52:51.554Z,64.43
2023-05-21T11:55:23.817Z,65.20
2023-05-21T11:57:55.429Z,64.29
2023-05-21T12:00:24.584Z,64.96
2023-05-21T12:02:55.758Z,64.47
2023-05-21T12:05:27.379Z,65.46
2023-05-21T12:07:56.715Z,64.37
2023-05-21T12:10:25.376Z,62.86
2023-05-21T12:12:57.030Z,62.82
2023-05-21T12:15:27.958Z,63.06
2023-05-21T12:17:58.057Z,62.47
2023-05-21T12:20:31.251Z,60.94
2023-05-21T12:23:00.852Z,60.86
2023-05-21T12:25:30.183Z,60.37
2023-05-21T12:28:01.525Z,61.08
2023-05-21T12:30:30.474Z,60.70
2023-05-21T12:33:02.434Z,60.29
2023-05-21T12:35:33.059Z,60.87
2023-05-21T12:38:04.561Z,60.11
2023-05-21T12:40:38.656Z,58.38
2023-05-21T12:43:08.073Z,59.10
2023-05-21T12:45:39.556Z,60.13
2023-05-21T12:48:08.506Z,59.26
2023-05-21T12:50:40.849Z,59.77
2023-05-21T12:53:11.163Z,58.87
2023-05-21T12:55:40.733Z,59.43
2023-05-21T12:58:09.625Z,58.99
2023-05-21T13:00:38.662Z,60.32
2023-05-21T13:03:07.480Z,58.47
2023-05-21T13:05:42.444Z,57.72
2023-05-21T13:08:14.194Z,58.45
2023-05-21T13:10:42.745Z,58.35
2023-05-21T13:13:11.255Z,58.77
2023-05-21T13:15:39.774Z,58.42
2023-05-21T13:18:08.226Z,59.71
2023-05-21T13:20:38.526Z,60.34
2023-05-21T13:23:09.074Z,59.86
2023-05-21T13:25:39.090Z,60.02
2023-05-21T13:28:10.305Z,60.27
2023-05-21T13:30:39.059Z,59.25
2023-05-21T13:33:07.928Z,58.46
2023-05-21T13:35:36.460Z,58.52
2023-05-21T13:38:06.339Z,59.25
2023-05-21T13:40:36.563Z,58.43
2023-05-21T13:43:06.667Z,58.10
2023-05-21T13:45:35.320Z,57.35
2023-05-21T13:48:03.927Z,56.06
2023-05-21T13:50:32.428Z,55.50
2023-05-21T13:53:00.927Z,56.45
2023-05-21T13:55:30.764Z,57.12
2023-05-21T13:57:59.223Z,57.02
2023-05-21T14:00:27.660Z,55.99
2023-05-21T14:02:56.327Z,54.39
2023-05-21T14:05:24.944Z,54.54
2023-05-21T14:07:53.453Z,54.77
2023-05-21T14:10:21.763Z,53.30
2023-05-21T14:12:51.705Z,54.30
2023-05-21T14:15:20.192Z,53.90
2023-05-21T14:17:48.657Z,53.44
2023-05-21T14:20:17.079Z,54.84
2023-05-21T14:22:45.589Z,56.34
2023-05-21T14:25:14.028Z,55.50
2023-05-21T14:27:42.380Z,54.76
2023-05-21T14:30:13.046Z,56.31
2023-05-21T14:32:41.529Z,56.26
2023-05-21T14:35:10.357Z,57.06
2023-05-21T14:37:38.817Z,58.39
2023-05-21T14:40:08.724Z,56.42
2023-05-21T14:42:37.272Z,56.67
2023-05-21T14:45:18.050Z,55.53
2023-05-21T14:47:49.358Z,56.63
2023-05-21T14:50:18.747Z,57.76
2023-05-21T14:52:47.368Z,57.34
2023-05-21T14:55:17.030Z,57.47
2023-05-21T14:57:46.062Z,56.96
2023-05-21T15:00:15.307Z,57.31
2023-05-21T15:02:44.030Z,57.39
2023-05-21T15:05:13.982Z,57.08
2023-05-21T15:07:42.359Z,57.12
2023-05-21T15:10:11.509Z,56.88
2023-05-21T15:12:40.232Z,57.11
2023-05-21T15:15:09.618Z,57.58
2023-05-21T15:17:38.168Z,57.29
2023-05-21T15:20:07.892Z,56.21
2023-05-21T15:22:37.958Z,56.31
2023-05-21T15:25:07.505Z,56.60
2023-05-21T15:27:36.017Z,56.45
2023-05-21T15:30:05.214Z,56.53
2023-05-21T15:32:33.607Z,56.55
2023-05-21T15:35:03.258Z,56.89
2023-05-21T15:37:33.161Z,56.03
2023-05-21T15:40:03.263Z,56.96
2023-05-21T15:42:32.041Z,56.92
2023-05-21T15:45:00.462Z,57.84
2023-05-21T15:47:29.009Z,58.21
2023-05-21T15:49:58.911Z,58.59
2023-05-21T15:52:27.478Z,58.99
2023-05-21T15:54:56.274Z,58.90
2023-05-21T15:57:26.153Z,58.92
2023-05-21T15:59:54.738Z,58.16
2023-05-21T16:02:23.328Z,58.43
2023-05-21T16:04:52.314Z,58.64
2023-05-21T16:07:21.256Z,58.25
2023-05-21T16:09:49.670Z,58.83
2023-05-21T16:12:18.458Z,59.81
2023-05-21T16:14:50.236Z,59.91
2023-05-21T16:17:19.823Z,59.93
2023-05-21T16:19:48.475Z,59.86
2023-05-21T16:22:17.213Z,60.39
2023-05-21T16:24:45.604Z,59.70
2023-05-21T16:27:14.054Z,59.71
2023-05-21T16:29:42.835Z,59.65
2023-05-21T16:32:14.325Z,60.36
2023-05-21T16:34:43.004Z,59.34
2023-05-21T16:37:12.869Z,58.65
2023-05-21T16:39:41.400Z,59.79
2023-05-21T16:42:09.798Z,60.74
2023-05-21T16:44:39.394Z,61.18
2023-05-21T16:47:08.303Z,61.32
2023-05-21T16:49:38.728Z,61.70
2023-05-21T16:52:07.761Z,62.43
2023-05-21T16:54:36.249Z,62.97
2023-05-21T16:57:05.035Z,63.64
2023-05-21T16:59:33.455Z,63.60
2023-05-21T17:02:02.088Z,63.77
2023-05-21T17:04:30.599Z,64.18
2023-05-21T17:07:00.401Z,64.11
2023-05-21T17:09:29.825Z,64.21
2023-05-21T17:11:58.337Z,64.08
2023-05-21T17:14:34.305Z,64.56
2023-05-21T17:17:03.954Z,65.10
2023-05-21T17:19:32.468Z,66.08
2023-05-21T17:22:02.357Z,66.55
2023-05-21T17:24:31.818Z,66.74
2023-05-21T17:27:00.204Z,67.52
2023-05-21T17:29:28.644Z,67.47
2023-05-21T17:31:57.281Z,67.47
2023-05-21T17:34:29.415Z,67.71
2023-05-21T17:36:59.144Z,68.27
2023-05-21T17:39:29.021Z,68.64
2023-05-21T17:41:57.851Z,69.02
2023-05-21T17:44:27.386Z,69.19
2023-05-21T17:46:56.770Z,69.17
2023-05-21T17:49:25.377Z,69.33
2023-05-21T17:51:54.190Z,69.39
2023-05-21T17:54:22.589Z,69.57
2023-05-21T17:56:52.435Z,69.35
2023-05-21T17:59:21.343Z,69.43
2023-05-21T18:01:49.796Z,69.16
2023-05-21T18:04:18.807Z,69.47
2023-05-21T18:06:47.290Z,69.61
2023-05-21T18:09:16.090Z,69.04
2023-05-21T18:11:45.126Z,69.14
2023-05-21T18:14:15.021Z,69.53
2023-05-21T18:16:43.622Z,69.43
2023-05-21T18:19:12.240Z,69.62
2023-05-21T18:21:40.794Z,69.80
2023-05-21T18:24:09.571Z,70.01
2023-05-21T18:26:37.906Z,69.82
2023-05-21T18:29:06.462Z,69.79
2023-05-21T18:31:36.392Z,69.73
2023-05-21T18:34:04.849Z,70.12
2023-05-21T18:36:39.015Z,70.33
2023-05-21T18:39:08.410Z,70.42
2023-05-21T18:41:37.488Z,70.83
2023-05-21T18:44:07.167Z,71.13
2023-05-21T18:46:37.923Z,71.16
2023-05-21T18:49:06.634Z,71.31
2023-05-21T18:51:35.092Z,71.54
2023-05-21T18:54:03.633Z,71.70
2023-05-21T18:56:32.057Z,72.12
2023-05-21T18:59:00.755Z,72.29
2023-05-21T19:01:29.414Z,72.57
2023-05-21T19:03:59.339Z,72.79
2023-05-21T19:06:27.894Z,72.94
2023-05-21T19:08:56.393Z,72.75
2023-05-21T19:11:27.634Z,72.79
2023-05-21T19:13:56.172Z,72.76
2023-05-21T19:16:24.560Z,72.73
2023-05-21T19:18:53.113Z,72.85
2023-05-21T19:21:22.904Z,72.67
2023-05-21T19:23:53.788Z,73.03
2023-05-21T19:26:23.085Z,72.97
2023-05-21T19:28:53.853Z,73.05
2023-05-21T19:31:22.757Z,72.81
2023-05-21T19:33:51.447Z,72.71
2023-05-21T19:36:20.265Z,72.58
2023-05-21T19:38:50.695Z,72.34
2023-05-21T19:41:19.941Z,72.07
2023-05-21T19:43:48.298Z,71.82
2023-05-21T19:46:20.434Z,71.35
2023-05-21T19:48:49.531Z,71.00
2023-05-21T19:51:18.272Z,70.81
2023-05-21T19:53:46.722Z,70.98
2023-05-21T19:56:17.261Z,71.00
2023-05-21T19:58:48.143Z,71.38
2023-05-21T20:01:17.577Z,71.27
2023-05-21T20:03:46.327Z,71.20
2023-05-21T20:06:17.042Z,70.85
2023-05-21T20:08:45.413Z,70.37
2023-05-21T20:11:14.032Z,70.12
2023-05-21T20:13:48.613Z,70.27
2023-05-21T20:16:18.536Z,70.55
2023-05-21T20:18:47.437Z,70.41
2023-05-21T20:21:17.573Z,70.66
2023-05-21T20:23:46.150Z,70.79
2023-05-21T20:26:15.135Z,70.57
2023-05-21T20:28:45.819Z,70.93
2023-05-21T20:31:14.519Z,71.20
2023-05-21T20:33:43.260Z,71.35
2023-05-21T20:36:13.415Z,71.59
2023-05-21T20:38:43.492Z,71.90
2023-05-21T20:41:12.059Z,71.85
2023-05-21T20:43:40.515Z,71.75
2023-05-21T20:46:11.112Z,71.30
2023-05-21T20:48:39.608Z,70.69
2023-05-21T20:51:08.593Z,70.53
2023-05-21T20:53:37.139Z,70.63
2023-05-21T20:56:08.277Z,70.74
2023-05-21T20:58:36.923Z,71.00
2023-05-21T21:01:05.458Z,70.96
2023-05-21T21:03:35.568Z,71.14
2023-05-21T21:06:05.900Z,71.19
2023-05-21T21:08:34.838Z,71.16
2023-05-21T21:11:03.349Z,71.51
2023-05-21T21:13:31.745Z,71.76
2023-05-21T21:16:00.318Z,72.05
2023-05-21T21:18:28.856Z,72.05
2023-05-21T21:20:58.827Z,71.77
2023-05-21T21:23:30.217Z,71.93
2023-05-21T21:25:58.897Z,72.60
2023-05-21T21:28:27.328Z,72.56
2023-05-21T21:30:55.902Z,72.53
2023-05-21T21:33:26.797Z,72.76
2023-05-21T21:35:56.474Z,72.87
2023-05-21T21:38:26.569Z,73.07
2023-05-21T21:40:55.345Z,73.02
2023-05-21T21:43:23.739Z,72.96
2023-05-21T21:45:52.580Z,72.79
2023-05-21T21:48:21.074Z,72.14
2023-05-21T21:50:49.492Z,71.94
2023-05-21T21:53:18.316Z,72.05
2023-05-21T21:55:48.116Z,72.30
2023-05-21T21:58:16.549Z,71.81
2023-05-21T22:00:45.006Z,71.40
2023-05-21T22:03:14.691Z,71.69
2023-05-21T22:05:43.474Z,71.78
2023-05-21T22:08:12.092Z,71.54
2023-05-21T22:10:40.726Z,71.47
2023-05-21T22:13:11.186Z,71.62
2023-05-21T22:15:39.872Z,71.84
2023-05-21T22:18:09.651Z,71.78
2023-05-21T22:20:38.470Z,71.76
2023-05-21T22:23:07.440Z,72.16
2023-05-21T22:25:36.210Z,71.89
2023-05-21T22:28:04.762Z,72.02
2023-05-21T22:30:34.640Z,71.99
2023-05-21T22:33:03.218Z,71.97
2023-05-21T22:35:31.773Z,71.79
2023-05-21T22:38:00.195Z,71.85
2023-05-21T22:40:28.672Z,72.32
2023-05-21T22:42:57.355Z,72.69
2023-05-21T22:45:26.530Z,72.90
2023-05-21T22:47:56.853Z,72.75
2023-05-21T22:50:29.289Z,72.75
2023-05-21T22:52:57.860Z,73.02
2023-05-21T22:55:26.342Z,72.93
2023-05-21T22:57:54.724Z,72.83
2023-05-21T23:00:23.621Z,72.96
2023-05-21T23:02:54.287Z,73.32
2023-05-21T23:05:24.799Z,72.97
2023-05-21T23:07:53.444Z,72.87
2023-05-21T23:10:21.869Z,73.42
2023-05-21T23:12:50.322Z,73.11
2023-05-21T23:15:19.125Z,73.21
2023-05-21T23:17:47.654Z,73.76
2023-05-21T23:20:16.463Z,73.76
2023-05-21T23:22:46.332Z,73.42
2023-05-21T23:25:14.820Z,73.47
2023-05-21T23:27:43.349Z,73.75
2023-05-21T23:30:12.801Z,73.46
2023-05-21T23:32:41.521Z,73.60
2023-05-21T23:35:11.744Z,73.55
2023-05-21T23:37:40.122Z,73.77
2023-05-21T23:40:11.304Z,73.55
2023-05-21T23:42:39.743Z,73.46
2023-05-21T23:45:09.017Z,73.72
2023-05-21T23:47:37.469Z,73.70
2023-05-21T23:50:06.608Z,73.81
2023-05-21T23:52:35.151Z,73.79
2023-05-21T23:55:03.607Z,73.87
2023-05-21T23:57:33.416Z,73.89
